DAL2211 KSLC-KBIL
Flight info
| Callsign | DAL2211 |
|---|---|
| Flight time | 0h 56m |
| Altitude | 31000 |
| Route | RUGGD3 HOLTR JEKUG YLSTN3 |
| Aircraft | A320/M-SDE3FGHIRWY/LB1 |
Departure
| Time | 2026-04-20 19:37 |
|---|---|
| Airport | Salt Lake City International Airport (KSLC) |
Arrival
| Time | 2026-04-20 20:33 |
|---|---|
| Airport | Billings Logan International Airport (KBIL) |
| Time | Latitude | Longitude | Altitude | Speed | Heading |
|---|---|---|---|---|---|
| 2026-04-20 19:17 | 40.79137 | -111.97934 | 4231 ft | 0 kts | 15° |
| 2026-04-20 19:26 | 40.79133 | -111.97935 | 4231 ft | 2 kts | 17° |
| 2026-04-20 19:26 | 40.79115 | -111.97943 | 4231 ft | 3 kts | 25° |
| 2026-04-20 19:26 | 40.79097 | -111.97956 | 4231 ft | 3 kts | 36° |
| 2026-04-20 19:26 | 40.79082 | -111.97973 | 4231 ft | 3 kts | 54° |
| 2026-04-20 19:27 | 40.79073 | -111.97995 | 4231 ft | 2 kts | 79° |
| 2026-04-20 19:27 | 40.79072 | -111.98003 | 4231 ft | 0 kts | 85° |
| 2026-04-20 19:30 | 40.79072 | -111.97983 | 4231 ft | 2 kts | 94° |
| 2026-04-20 19:30 | 40.79072 | -111.97969 | 4231 ft | 5 kts | 89° |
| 2026-04-20 19:31 | 40.79080 | -111.97862 | 4231 ft | 11 kts | 85° |
| 2026-04-20 19:31 | 40.79091 | -111.97759 | 4231 ft | 11 kts | 64° |
| 2026-04-20 19:31 | 40.79153 | -111.97729 | 4231 ft | 9 kts | 356° |
| 2026-04-20 19:31 | 40.79213 | -111.97737 | 4231 ft | 8 kts | 354° |
| 2026-04-20 19:32 | 40.79267 | -111.97743 | 4231 ft | 8 kts | 355° |
| 2026-04-20 19:32 | 40.79324 | -111.97750 | 4231 ft | 9 kts | 355° |
| 2026-04-20 19:32 | 40.79408 | -111.97758 | 4230 ft | 17 kts | 354° |
| 2026-04-20 19:32 | 40.79530 | -111.97776 | 4230 ft | 17 kts | 355° |
| 2026-04-20 19:33 | 40.79638 | -111.97785 | 4230 ft | 14 kts | 358° |
| 2026-04-20 19:33 | 40.79729 | -111.97796 | 4230 ft | 12 kts | 353° |
| 2026-04-20 19:33 | 40.79818 | -111.97807 | 4230 ft | 14 kts | 355° |
| 2026-04-20 19:33 | 40.79908 | -111.97817 | 4231 ft | 12 kts | 355° |
| 2026-04-20 19:34 | 40.79983 | -111.97825 | 4231 ft | 10 kts | 355° |
| 2026-04-20 19:34 | 40.80074 | -111.97834 | 4231 ft | 16 kts | 356° |
| 2026-04-20 19:34 | 40.80195 | -111.97848 | 4231 ft | 18 kts | 356° |
| 2026-04-20 19:34 | 40.80308 | -111.97830 | 4231 ft | 15 kts | 13° |
| 2026-04-20 19:35 | 40.80374 | -111.97819 | 4231 ft | 14 kts | 2° |
| 2026-04-20 19:35 | 40.80488 | -111.97831 | 4231 ft | 12 kts | 354° |
| 2026-04-20 19:35 | 40.80604 | -111.97833 | 4231 ft | 14 kts | 21° |
| 2026-04-20 19:35 | 40.80617 | -111.97819 | 4229 ft | 0 kts | 47° |
| 2026-04-20 19:36 | 40.80617 | -111.97818 | 4229 ft | 0 kts | 47° |
| 2026-04-20 19:36 | 40.80639 | -111.97744 | 4230 ft | 23 kts | 85° |
| 2026-04-20 19:36 | 40.80537 | -111.97678 | 4232 ft | 17 kts | 176° |
| 2026-04-20 19:36 | 40.80370 | -111.97659 | 4232 ft | 48 kts | 174° |
| 2026-04-20 19:37 | 40.79815 | -111.97589 | 4230 ft | 110 kts | 175° |
| 2026-04-20 19:37 | 40.78874 | -111.97473 | 4235 ft | 159 kts | 174° |
| 2026-04-20 19:37 | 40.77690 | -111.97485 | 4618 ft | 177 kts | 193° |
| 2026-04-20 19:37 | 40.76595 | -111.98295 | 5308 ft | 189 kts | 225° |
| 2026-04-20 19:38 | 40.76023 | -111.99914 | 5956 ft | 206 kts | 261° |
| 2026-04-20 19:38 | 40.76319 | -112.01805 | 6626 ft | 222 kts | 299° |
| 2026-04-20 19:38 | 40.77328 | -112.03416 | 7063 ft | 236 kts | 309° |
| 2026-04-20 19:38 | 40.78496 | -112.05083 | 7293 ft | 260 kts | 307° |
| 2026-04-20 19:39 | 40.79708 | -112.07007 | 7504 ft | 285 kts | 305° |
| 2026-04-20 19:39 | 40.81017 | -112.09113 | 7818 ft | 308 kts | 308° |
| 2026-04-20 19:39 | 40.82459 | -112.11360 | 8036 ft | 333 kts | 308° |
| 2026-04-20 19:39 | 40.84054 | -112.13689 | 8480 ft | 349 kts | 312° |
| 2026-04-20 19:40 | 40.85770 | -112.16023 | 9050 ft | 358 kts | 313° |
| 2026-04-20 19:40 | 40.87547 | -112.18357 | 9804 ft | 362 kts | 314° |
| 2026-04-20 19:40 | 40.89410 | -112.20595 | 10694 ft | 361 kts | 316° |
| 2026-04-20 19:40 | 40.91362 | -112.22673 | 11570 ft | 360 kts | 319° |
| 2026-04-20 19:41 | 40.93403 | -112.24590 | 12466 ft | 360 kts | 323° |
| 2026-04-20 19:41 | 40.95533 | -112.26333 | 13234 ft | 365 kts | 328° |
| 2026-04-20 19:41 | 40.98024 | -112.27302 | 13711 ft | 384 kts | 354° |
| 2026-04-20 19:41 | 41.00687 | -112.26786 | 14265 ft | 395 kts | 20° |
| 2026-04-20 19:42 | 41.03003 | -112.24849 | 14887 ft | 397 kts | 46° |
| 2026-04-20 19:42 | 41.04589 | -112.21877 | 15536 ft | 396 kts | 64° |
| 2026-04-20 19:42 | 41.05901 | -112.18660 | 16181 ft | 399 kts | 63° |
| 2026-04-20 19:42 | 41.07221 | -112.15415 | 16816 ft | 402 kts | 63° |
| 2026-04-20 19:43 | 41.08552 | -112.12141 | 17438 ft | 404 kts | 63° |
| 2026-04-20 19:43 | 41.09888 | -112.08849 | 18115 ft | 406 kts | 63° |
| 2026-04-20 19:43 | 41.11296 | -112.05593 | 18670 ft | 410 kts | 55° |
| 2026-04-20 19:43 | 41.13239 | -112.02815 | 19183 ft | 413 kts | 40° |
| 2026-04-20 19:44 | 41.15405 | -112.00285 | 19712 ft | 414 kts | 41° |
| 2026-04-20 19:44 | 41.17538 | -111.97671 | 20188 ft | 419 kts | 43° |
| 2026-04-20 19:44 | 41.19656 | -111.94998 | 20732 ft | 422 kts | 43° |
| 2026-04-20 19:44 | 41.21786 | -111.92279 | 21270 ft | 425 kts | 43° |
| 2026-04-20 19:45 | 41.23928 | -111.89546 | 21795 ft | 428 kts | 43° |
| 2026-04-20 19:45 | 41.26089 | -111.86813 | 22294 ft | 431 kts | 43° |
| 2026-04-20 19:45 | 41.28278 | -111.84067 | 22798 ft | 433 kts | 42° |
| 2026-04-20 19:45 | 41.30481 | -111.81317 | 23264 ft | 436 kts | 42° |
| 2026-04-20 19:46 | 41.32701 | -111.78548 | 23705 ft | 440 kts | 41° |
| 2026-04-20 19:46 | 41.34948 | -111.75753 | 24046 ft | 444 kts | 41° |
| 2026-04-20 19:46 | 41.37279 | -111.73054 | 24399 ft | 445 kts | 34° |
| 2026-04-20 19:46 | 41.39899 | -111.70860 | 24757 ft | 444 kts | 25° |
| 2026-04-20 19:47 | 41.42738 | -111.69281 | 25122 ft | 442 kts | 15° |
| 2026-04-20 19:47 | 41.45686 | -111.68125 | 25476 ft | 443 kts | 13° |
| 2026-04-20 19:47 | 41.47658 | -111.67359 | 25713 ft | 444 kts | 14° |
| 2026-04-20 19:47 | 41.50632 | -111.66196 | 26078 ft | 446 kts | 13° |
| 2026-04-20 19:48 | 41.53612 | -111.65025 | 26428 ft | 448 kts | 13° |
| 2026-04-20 19:48 | 41.56611 | -111.63843 | 26789 ft | 450 kts | 13° |
| 2026-04-20 19:48 | 41.59616 | -111.62659 | 27144 ft | 451 kts | 13° |
| 2026-04-20 19:48 | 41.62635 | -111.61469 | 27491 ft | 453 kts | 13° |
| 2026-04-20 19:49 | 41.65667 | -111.60274 | 27812 ft | 455 kts | 13° |
| 2026-04-20 19:49 | 41.68709 | -111.59074 | 28153 ft | 457 kts | 13° |
| 2026-04-20 19:49 | 41.71760 | -111.57867 | 28470 ft | 458 kts | 13° |
| 2026-04-20 19:49 | 41.74825 | -111.56654 | 28767 ft | 460 kts | 13° |
| 2026-04-20 19:50 | 41.77902 | -111.55436 | 29025 ft | 462 kts | 13° |
| 2026-04-20 19:50 | 41.81010 | -111.54440 | 29306 ft | 460 kts | 6° |
| 2026-04-20 19:50 | 41.84180 | -111.53730 | 29616 ft | 461 kts | 6° |
| 2026-04-20 19:50 | 41.87352 | -111.53022 | 29898 ft | 463 kts | 6° |
| 2026-04-20 19:51 | 41.90532 | -111.52310 | 30164 ft | 464 kts | 6° |
| 2026-04-20 19:51 | 41.93719 | -111.51593 | 30392 ft | 466 kts | 6° |
| 2026-04-20 19:51 | 41.96916 | -111.50868 | 30646 ft | 466 kts | 6° |
| 2026-04-20 19:51 | 42.00106 | -111.50142 | 30933 ft | 465 kts | 6° |
| 2026-04-20 19:52 | 42.03290 | -111.49414 | 31039 ft | 461 kts | 6° |
| 2026-04-20 19:52 | 42.09531 | -111.47988 | 31062 ft | 452 kts | 6° |
| 2026-04-20 19:53 | 42.15715 | -111.46592 | 31060 ft | 450 kts | 6° |
| 2026-04-20 19:53 | 42.21900 | -111.45189 | 31064 ft | 451 kts | 6° |
| 2026-04-20 19:54 | 42.28078 | -111.43656 | 31067 ft | 454 kts | 12° |
| 2026-04-20 19:54 | 42.33894 | -111.40220 | 31066 ft | 461 kts | 27° |
| 2026-04-20 19:55 | 42.39408 | -111.35782 | 31069 ft | 461 kts | 27° |
| 2026-04-20 19:55 | 42.44932 | -111.31346 | 31061 ft | 462 kts | 27° |
| 2026-04-20 19:56 | 42.50464 | -111.26890 | 31078 ft | 463 kts | 27° |
| 2026-04-20 19:56 | 42.55998 | -111.22409 | 31102 ft | 463 kts | 27° |
| 2026-04-20 19:57 | 42.61523 | -111.17922 | 31135 ft | 463 kts | 27° |
| 2026-04-20 19:57 | 42.67053 | -111.13429 | 31144 ft | 463 kts | 27° |
| 2026-04-20 19:58 | 42.72615 | -111.08919 | 31167 ft | 462 kts | 27° |
| 2026-04-20 19:58 | 42.78096 | -111.04451 | 31172 ft | 462 kts | 27° |
| 2026-04-20 19:59 | 42.83641 | -110.99916 | 31163 ft | 461 kts | 27° |
| 2026-04-20 19:59 | 42.89141 | -110.95414 | 31145 ft | 461 kts | 27° |
| 2026-04-20 20:00 | 42.94640 | -110.90905 | 31088 ft | 461 kts | 27° |
| 2026-04-20 20:00 | 43.00126 | -110.86396 | 31082 ft | 460 kts | 27° |
| 2026-04-20 20:01 | 43.05610 | -110.81880 | 31079 ft | 460 kts | 27° |
| 2026-04-20 20:01 | 43.11091 | -110.77351 | 31093 ft | 460 kts | 27° |
| 2026-04-20 20:02 | 43.16556 | -110.72823 | 31093 ft | 459 kts | 27° |
| 2026-04-20 20:02 | 43.22023 | -110.68299 | 31084 ft | 459 kts | 27° |
| 2026-04-20 20:03 | 43.27485 | -110.63769 | 31083 ft | 459 kts | 27° |
| 2026-04-20 20:03 | 43.32942 | -110.59221 | 31089 ft | 459 kts | 27° |
| 2026-04-20 20:04 | 43.38393 | -110.54672 | 31090 ft | 459 kts | 27° |
| 2026-04-20 20:04 | 43.43855 | -110.50113 | 31091 ft | 460 kts | 27° |
| 2026-04-20 20:05 | 43.49364 | -110.45521 | 31098 ft | 461 kts | 28° |
| 2026-04-20 20:05 | 43.54821 | -110.40923 | 31101 ft | 460 kts | 28° |
| 2026-04-20 20:06 | 43.60264 | -110.36316 | 31100 ft | 458 kts | 28° |
| 2026-04-20 20:06 | 43.65699 | -110.31724 | 31103 ft | 458 kts | 28° |
| 2026-04-20 20:07 | 43.71141 | -110.27134 | 31098 ft | 458 kts | 28° |
| 2026-04-20 20:07 | 43.76611 | -110.22508 | 31107 ft | 458 kts | 27° |
| 2026-04-20 20:08 | 43.82006 | -110.17933 | 31099 ft | 458 kts | 28° |
| 2026-04-20 20:08 | 43.87460 | -110.13280 | 31102 ft | 457 kts | 28° |
| 2026-04-20 20:09 | 43.92876 | -110.08661 | 31101 ft | 457 kts | 28° |
| 2026-04-20 20:09 | 43.98290 | -110.04043 | 31092 ft | 457 kts | 28° |
| 2026-04-20 20:10 | 44.03687 | -109.99426 | 31095 ft | 457 kts | 28° |
| 2026-04-20 20:10 | 44.09107 | -109.94768 | 31102 ft | 457 kts | 28° |
| 2026-04-20 20:11 | 44.14512 | -109.90124 | 31097 ft | 456 kts | 28° |
| 2026-04-20 20:11 | 44.19910 | -109.85481 | 31081 ft | 456 kts | 28° |
| 2026-04-20 20:12 | 44.25308 | -109.80817 | 31079 ft | 456 kts | 28° |
| 2026-04-20 20:12 | 44.30717 | -109.76174 | 31072 ft | 455 kts | 24° |
| 2026-04-20 20:13 | 44.39138 | -109.70214 | 31077 ft | 453 kts | 22° |
| 2026-04-20 20:13 | 44.44786 | -109.66227 | 31052 ft | 453 kts | 22° |
| 2026-04-20 20:14 | 44.50419 | -109.62252 | 31065 ft | 454 kts | 22° |
| 2026-04-20 20:14 | 44.56048 | -109.58269 | 31028 ft | 454 kts | 22° |
| 2026-04-20 20:15 | 44.61679 | -109.54257 | 31044 ft | 453 kts | 22° |
| 2026-04-20 20:15 | 44.67292 | -109.50250 | 31013 ft | 452 kts | 22° |
| 2026-04-20 20:16 | 44.72936 | -109.46232 | 31021 ft | 460 kts | 22° |
| 2026-04-20 20:16 | 44.78708 | -109.42125 | 30775 ft | 465 kts | 22° |
| 2026-04-20 20:17 | 44.81581 | -109.40064 | 30124 ft | 462 kts | 23° |
| 2026-04-20 20:17 | 44.84430 | -109.38010 | 29382 ft | 458 kts | 23° |
| 2026-04-20 20:17 | 44.87258 | -109.35970 | 28628 ft | 455 kts | 22° |
| 2026-04-20 20:17 | 44.90066 | -109.33944 | 27910 ft | 452 kts | 22° |
| 2026-04-20 20:18 | 44.92856 | -109.31933 | 27224 ft | 449 kts | 22° |
| 2026-04-20 20:18 | 44.95623 | -109.29944 | 26523 ft | 446 kts | 22° |
| 2026-04-20 20:18 | 44.98391 | -109.27955 | 25734 ft | 446 kts | 22° |
| 2026-04-20 20:18 | 45.01159 | -109.25964 | 24967 ft | 446 kts | 22° |
| 2026-04-20 20:19 | 45.03922 | -109.23974 | 24221 ft | 446 kts | 22° |
| 2026-04-20 20:19 | 45.06692 | -109.21975 | 23480 ft | 446 kts | 23° |
| 2026-04-20 20:19 | 45.09454 | -109.19976 | 22598 ft | 446 kts | 23° |
| 2026-04-20 20:19 | 45.12210 | -109.17973 | 21761 ft | 446 kts | 23° |
| 2026-04-20 20:20 | 45.14969 | -109.15960 | 20901 ft | 447 kts | 23° |
| 2026-04-20 20:20 | 45.17739 | -109.13936 | 20035 ft | 448 kts | 23° |
| 2026-04-20 20:20 | 45.20510 | -109.11912 | 19173 ft | 448 kts | 23° |
| 2026-04-20 20:20 | 45.23280 | -109.09890 | 18360 ft | 448 kts | 23° |
| 2026-04-20 20:21 | 45.26056 | -109.07862 | 17438 ft | 448 kts | 24° |
| 2026-04-20 20:21 | 45.28825 | -109.05838 | 16532 ft | 447 kts | 24° |
| 2026-04-20 20:21 | 45.30656 | -109.04499 | 15941 ft | 447 kts | 24° |
| 2026-04-20 20:21 | 45.34346 | -109.01800 | 14783 ft | 445 kts | 24° |
| 2026-04-20 20:22 | 45.36170 | -109.00478 | 14339 ft | 442 kts | 24° |
| 2026-04-20 20:22 | 45.38892 | -108.98508 | 13638 ft | 437 kts | 24° |
| 2026-04-20 20:22 | 45.41582 | -108.96587 | 12787 ft | 425 kts | 24° |
| 2026-04-20 20:22 | 45.44175 | -108.94749 | 11907 ft | 407 kts | 24° |
| 2026-04-20 20:23 | 45.46655 | -108.92975 | 11046 ft | 391 kts | 22° |
| 2026-04-20 20:23 | 45.49170 | -108.91774 | 10233 ft | 373 kts | 9° |
| 2026-04-20 20:23 | 45.51730 | -108.91493 | 9385 ft | 357 kts | 357° |
| 2026-04-20 20:23 | 45.54148 | -108.91591 | 8540 ft | 347 kts | 356° |
| 2026-04-20 20:24 | 45.56542 | -108.91726 | 8018 ft | 329 kts | 356° |
| 2026-04-20 20:24 | 45.58741 | -108.91863 | 7861 ft | 303 kts | 356° |
| 2026-04-20 20:24 | 45.60758 | -108.91986 | 7831 ft | 276 kts | 356° |
| 2026-04-20 20:24 | 45.62600 | -108.92099 | 7843 ft | 263 kts | 356° |
| 2026-04-20 20:25 | 45.64510 | -108.92219 | 7836 ft | 282 kts | 355° |
| 2026-04-20 20:25 | 45.66489 | -108.92343 | 7835 ft | 286 kts | 356° |
| 2026-04-20 20:25 | 45.68483 | -108.92460 | 7838 ft | 287 kts | 356° |
| 2026-04-20 20:25 | 45.70480 | -108.92575 | 7830 ft | 287 kts | 356° |
| 2026-04-20 20:26 | 45.72473 | -108.92687 | 7828 ft | 287 kts | 356° |
| 2026-04-20 20:26 | 45.74473 | -108.92799 | 7834 ft | 287 kts | 356° |
| 2026-04-20 20:26 | 45.76469 | -108.92908 | 7833 ft | 287 kts | 356° |
| 2026-04-20 20:26 | 45.78452 | -108.93018 | 7820 ft | 281 kts | 356° |
| 2026-04-20 20:27 | 45.80341 | -108.93122 | 7835 ft | 263 kts | 356° |
| 2026-04-20 20:27 | 45.82119 | -108.93221 | 7828 ft | 249 kts | 355° |
| 2026-04-20 20:27 | 45.83832 | -108.93129 | 7818 ft | 247 kts | 13° |
| 2026-04-20 20:27 | 45.85346 | -108.92000 | 7821 ft | 247 kts | 42° |
| 2026-04-20 20:28 | 45.86269 | -108.90044 | 7826 ft | 232 kts | 71° |
| 2026-04-20 20:28 | 45.86694 | -108.87914 | 7858 ft | 212 kts | 74° |
| 2026-04-20 20:28 | 45.87076 | -108.85952 | 7823 ft | 196 kts | 74° |
| 2026-04-20 20:28 | 45.87427 | -108.84145 | 7815 ft | 180 kts | 74° |
| 2026-04-20 20:29 | 45.87758 | -108.82443 | 7820 ft | 175 kts | 75° |
| 2026-04-20 20:29 | 45.87906 | -108.80715 | 7826 ft | 175 kts | 91° |
| 2026-04-20 20:29 | 45.87698 | -108.78973 | 7553 ft | 180 kts | 109° |
| 2026-04-20 20:29 | 45.87274 | -108.77245 | 7129 ft | 190 kts | 112° |
| 2026-04-20 20:30 | 45.86757 | -108.75316 | 6632 ft | 219 kts | 112° |
| 2026-04-20 20:30 | 45.86202 | -108.73287 | 6244 ft | 214 kts | 112° |
| 2026-04-20 20:30 | 45.85661 | -108.71325 | 5918 ft | 207 kts | 112° |
| 2026-04-20 20:30 | 45.85142 | -108.69445 | 5649 ft | 197 kts | 113° |
| 2026-04-20 20:31 | 45.84655 | -108.67686 | 5430 ft | 180 kts | 112° |
| 2026-04-20 20:31 | 45.84211 | -108.66081 | 5186 ft | 167 kts | 112° |
| 2026-04-20 20:31 | 45.83794 | -108.64576 | 4974 ft | 159 kts | 113° |
| 2026-04-20 20:31 | 45.83388 | -108.63111 | 4774 ft | 157 kts | 114° |
| 2026-04-20 20:32 | 45.82984 | -108.61652 | 4562 ft | 157 kts | 112° |
| 2026-04-20 20:32 | 45.82649 | -108.60414 | 4362 ft | 151 kts | 112° |
| 2026-04-20 20:32 | 45.82262 | -108.59016 | 4157 ft | 149 kts | 114° |
| 2026-04-20 20:32 | 45.81886 | -108.57680 | 3983 ft | 144 kts | 113° |
| 2026-04-20 20:33 | 45.81519 | -108.56352 | 3772 ft | 143 kts | 115° |
| 2026-04-20 20:33 | 45.81154 | -108.55046 | 3585 ft | 136 kts | 113° |
| 2026-04-20 20:33 | 45.80877 | -108.54060 | 3560 ft | 66 kts | 112° |
| 2026-04-20 20:33 | 45.80794 | -108.53769 | 3560 ft | 20 kts | 115° |
| 2026-04-20 20:34 | 45.80680 | -108.53761 | 3560 ft | 15 kts | 200° |
| 2026-04-20 20:34 | 45.80604 | -108.53775 | 3559 ft | 11 kts | 144° |
| 2026-04-20 20:34 | 45.80571 | -108.53665 | 3558 ft | 13 kts | 128° |
| 2026-04-20 20:34 | 45.80487 | -108.53638 | 3557 ft | 11 kts | 185° |
| 2026-04-20 20:35 | 45.80476 | -108.53640 | 3557 ft | 0 kts | 186° |